sensor_id;sensor_type;location;lat;lon;timestamp;P1;durP1;ratioP1;P2;durP2;ratioP2
47367;SDS011;34646;47.964;7.982;2023-02-28T00:04:57;2.83;;;1.10;;
47367;SDS011;34646;47.964;7.982;2023-02-28T00:11:11;1.98;;;0.90;;
47367;SDS011;34646;47.964;7.982;2023-02-28T00:17:13;4.07;;;1.17;;
47367;SDS011;34646;47.964;7.982;2023-02-28T00:23:14;1.43;;;0.90;;
47367;SDS011;34646;47.964;7.982;2023-02-28T00:29:15;1.93;;;1.03;;
47367;SDS011;34646;47.964;7.982;2023-02-28T00:35:18;1.60;;;0.80;;
47367;SDS011;34646;47.964;7.982;2023-02-28T00:41:18;1.67;;;0.90;;
47367;SDS011;34646;47.964;7.982;2023-02-28T00:47:21;2.88;;;1.23;;
47367;SDS011;34646;47.964;7.982;2023-02-28T00:53:22;1.63;;;0.97;;
47367;SDS011;34646;47.964;7.982;2023-02-28T00:59:23;3.53;;;1.10;;
47367;SDS011;34646;47.964;7.982;2023-02-28T01:05:24;2.60;;;1.10;;
47367;SDS011;34646;47.964;7.982;2023-02-28T01:11:25;1.87;;;0.90;;
47367;SDS011;34646;47.964;7.982;2023-02-28T01:17:27;2.33;;;0.93;;
47367;SDS011;34646;47.964;7.982;2023-02-28T01:23:28;1.73;;;0.93;;
47367;SDS011;34646;47.964;7.982;2023-02-28T01:29:29;3.00;;;1.07;;
47367;SDS011;34646;47.964;7.982;2023-02-28T01:35:32;1.57;;;1.00;;
47367;SDS011;34646;47.964;7.982;2023-02-28T01:41:34;2.53;;;1.10;;
47367;SDS011;34646;47.964;7.982;2023-02-28T01:47:36;1.30;;;0.82;;
47367;SDS011;34646;47.964;7.982;2023-02-28T01:53:43;1.48;;;1.10;;
47367;SDS011;34646;47.964;7.982;2023-02-28T01:59:52;1.77;;;0.90;;
47367;SDS011;34646;47.964;7.982;2023-02-28T02:05:58;1.50;;;1.03;;
47367;SDS011;34646;47.964;7.982;2023-02-28T02:11:59;3.57;;;1.00;;
47367;SDS011;34646;47.964;7.982;2023-02-28T02:18:40;1.65;;;1.10;;
47367;SDS011;34646;47.964;7.982;2023-02-28T02:37:25;2.63;;;0.90;;
47367;SDS011;34646;47.964;7.982;2023-02-28T02:43:38;1.52;;;0.85;;
47367;SDS011;34646;47.964;7.982;2023-02-28T02:49:42;2.15;;;1.10;;
47367;SDS011;34646;47.964;7.982;2023-02-28T02:55:48;2.22;;;1.00;;
47367;SDS011;34646;47.964;7.982;2023-02-28T03:01:55;2.42;;;0.90;;
47367;SDS011;34646;47.964;7.982;2023-02-28T03:07:59;2.20;;;1.13;;
47367;SDS011;34646;47.964;7.982;2023-02-28T03:14:30;1.40;;;0.85;;
47367;SDS011;34646;47.964;7.982;2023-02-28T03:20:50;3.42;;;1.13;;
47367;SDS011;34646;47.964;7.982;2023-02-28T03:27:15;3.10;;;1.15;;
47367;SDS011;34646;47.964;7.982;2023-02-28T03:33:36;1.33;;;0.90;;
47367;SDS011;34646;47.964;7.982;2023-02-28T03:39:42;1.70;;;0.95;;
47367;SDS011;34646;47.964;7.982;2023-02-28T03:45:52;1.87;;;0.90;;
47367;SDS011;34646;47.964;7.982;2023-02-28T03:51:55;1.15;;;0.82;;
47367;SDS011;34646;47.964;7.982;2023-02-28T03:58:05;1.58;;;0.70;;
47367;SDS011;34646;47.964;7.982;2023-02-28T04:04:31;2.00;;;0.85;;
47367;SDS011;34646;47.964;7.982;2023-02-28T04:16:35;1.40;;;0.80;;
47367;SDS011;34646;47.964;7.982;2023-02-28T04:22:39;1.63;;;0.68;;
47367;SDS011;34646;47.964;7.982;2023-02-28T04:28:39;2.93;;;1.37;;
47367;SDS011;34646;47.964;7.982;2023-02-28T04:34:40;1.30;;;0.90;;
47367;SDS011;34646;47.964;7.982;2023-02-28T04:40:41;1.93;;;1.10;;
47367;SDS011;34646;47.964;7.982;2023-02-28T04:46:43;2.87;;;1.10;;
47367;SDS011;34646;47.964;7.982;2023-02-28T04:52:44;1.80;;;1.00;;
47367;SDS011;34646;47.964;7.982;2023-02-28T04:58:45;1.67;;;0.93;;
47367;SDS011;34646;47.964;7.982;2023-02-28T05:04:46;1.35;;;0.70;;
47367;SDS011;34646;47.964;7.982;2023-02-28T05:10:47;1.60;;;0.90;;
47367;SDS011;34646;47.964;7.982;2023-02-28T05:16:48;1.57;;;0.83;;
47367;SDS011;34646;47.964;7.982;2023-02-28T05:22:49;1.47;;;1.00;;
47367;SDS011;34646;47.964;7.982;2023-02-28T05:28:52;1.52;;;1.13;;
47367;SDS011;34646;47.964;7.982;2023-02-28T05:34:54;1.58;;;0.80;;
47367;SDS011;34646;47.964;7.982;2023-02-28T05:40:55;1.37;;;0.90;;
47367;SDS011;34646;47.964;7.982;2023-02-28T05:46:56;2.13;;;1.20;;
47367;SDS011;34646;47.964;7.982;2023-02-28T05:52:57;1.23;;;0.90;;
47367;SDS011;34646;47.964;7.982;2023-02-28T05:58:58;2.50;;;0.90;;
47367;SDS011;34646;47.964;7.982;2023-02-28T06:04:59;4.53;;;0.97;;
47367;SDS011;34646;47.964;7.982;2023-02-28T06:11:02;1.87;;;1.10;;
47367;SDS011;34646;47.964;7.982;2023-02-28T06:17:04;3.60;;;1.40;;
47367;SDS011;34646;47.964;7.982;2023-02-28T06:23:05;2.23;;;0.97;;
47367;SDS011;34646;47.964;7.982;2023-02-28T06:29:06;3.83;;;1.03;;
47367;SDS011;34646;47.964;7.982;2023-02-28T06:35:07;3.50;;;1.08;;
47367;SDS011;34646;47.964;7.982;2023-02-28T06:41:08;1.60;;;1.00;;
47367;SDS011;34646;47.964;7.982;2023-02-28T06:47:09;5.70;;;1.20;;
47367;SDS011;34646;47.964;7.982;2023-02-28T06:53:10;2.87;;;1.47;;
47367;SDS011;34646;47.964;7.982;2023-02-28T06:59:11;1.83;;;0.80;;
47367;SDS011;34646;47.964;7.982;2023-02-28T07:05:12;4.27;;;0.97;;
47367;SDS011;34646;47.964;7.982;2023-02-28T07:11:14;4.33;;;1.00;;
47367;SDS011;34646;47.964;7.982;2023-02-28T07:17:15;4.40;;;1.63;;
47367;SDS011;34646;47.964;7.982;2023-02-28T07:23:16;1.50;;;0.90;;
47367;SDS011;34646;47.964;7.982;2023-02-28T07:29:17;2.63;;;1.00;;
47367;SDS011;34646;47.964;7.982;2023-02-28T07:35:18;2.53;;;1.00;;
47367;SDS011;34646;47.964;7.982;2023-02-28T07:41:19;2.40;;;1.10;;
47367;SDS011;34646;47.964;7.982;2023-02-28T07:47:21;1.75;;;1.13;;
47367;SDS011;34646;47.964;7.982;2023-02-28T07:53:23;1.48;;;0.98;;
47367;SDS011;34646;47.964;7.982;2023-02-28T07:59:24;2.17;;;0.90;;
47367;SDS011;34646;47.964;7.982;2023-02-28T08:05:25;1.90;;;0.97;;
47367;SDS011;34646;47.964;7.982;2023-02-28T08:11:26;2.40;;;1.13;;
47367;SDS011;34646;47.964;7.982;2023-02-28T08:17:27;1.30;;;0.73;;
47367;SDS011;34646;47.964;7.982;2023-02-28T08:23:28;2.37;;;0.73;;
47367;SDS011;34646;47.964;7.982;2023-02-28T08:29:29;2.20;;;1.00;;
47367;SDS011;34646;47.964;7.982;2023-02-28T08:35:30;1.57;;;1.00;;
47367;SDS011;34646;47.964;7.982;2023-02-28T08:41:31;1.33;;;0.80;;
47367;SDS011;34646;47.964;7.982;2023-02-28T08:47:32;1.90;;;0.93;;
47367;SDS011;34646;47.964;7.982;2023-02-28T08:53:33;2.80;;;1.30;;
47367;SDS011;34646;47.964;7.982;2023-02-28T08:59:34;1.30;;;0.73;;
47367;SDS011;34646;47.964;7.982;2023-02-28T09:05:35;1.50;;;1.00;;
47367;SDS011;34646;47.964;7.982;2023-02-28T09:11:36;2.10;;;0.97;;
47367;SDS011;34646;47.964;7.982;2023-02-28T09:17:37;2.67;;;1.33;;
47367;SDS011;34646;47.964;7.982;2023-02-28T09:23:39;2.00;;;1.33;;
47367;SDS011;34646;47.964;7.982;2023-02-28T09:29:40;1.37;;;0.83;;
47367;SDS011;34646;47.964;7.982;2023-02-28T09:35:41;1.47;;;0.87;;
47367;SDS011;34646;47.964;7.982;2023-02-28T09:41:43;2.75;;;1.30;;
47367;SDS011;34646;47.964;7.982;2023-02-28T09:47:50;1.90;;;0.90;;
47367;SDS011;34646;47.964;7.982;2023-02-28T09:53:54;1.50;;;0.80;;
47367;SDS011;34646;47.964;7.982;2023-02-28T10:06:19;1.10;;;0.90;;
47367;SDS011;34646;47.964;7.982;2023-02-28T10:12:21;2.05;;;0.80;;
47367;SDS011;34646;47.964;7.982;2023-02-28T10:18:27;1.35;;;0.80;;
47367;SDS011;34646;47.964;7.982;2023-02-28T10:24:39;1.88;;;0.80;;
47367;SDS011;34646;47.964;7.982;2023-02-28T10:30:47;1.30;;;0.80;;
47367;SDS011;34646;47.964;7.982;2023-02-28T10:36:49;1.30;;;0.73;;
47367;SDS011;34646;47.964;7.982;2023-02-28T10:49:00;4.85;;;1.30;;
47367;SDS011;34646;47.964;7.982;2023-02-28T10:55:15;1.50;;;0.90;;
47367;SDS011;34646;47.964;7.982;2023-02-28T11:01:34;1.17;;;0.90;;
47367;SDS011;34646;47.964;7.982;2023-02-28T11:07:52;1.55;;;0.93;;
47367;SDS011;34646;47.964;7.982;2023-02-28T11:13:56;2.80;;;0.93;;
47367;SDS011;34646;47.964;7.982;2023-02-28T11:20:06;1.92;;;1.10;;
47367;SDS011;34646;47.964;7.982;2023-02-28T11:26:34;1.73;;;0.88;;
47367;SDS011;34646;47.964;7.982;2023-02-28T11:32:48;1.90;;;0.90;;
47367;SDS011;34646;47.964;7.982;2023-02-28T11:38:49;1.02;;;0.65;;
47367;SDS011;34646;47.964;7.982;2023-02-28T11:50:59;1.70;;;0.90;;
47367;SDS011;34646;47.964;7.982;2023-02-28T11:57:39;1.38;;;0.80;;
47367;SDS011;34646;47.964;7.982;2023-02-28T12:03:58;1.70;;;1.02;;
47367;SDS011;34646;47.964;7.982;2023-02-28T12:10:16;1.23;;;0.87;;
47367;SDS011;34646;47.964;7.982;2023-02-28T12:16:45;1.13;;;0.77;;
47367;SDS011;34646;47.964;7.982;2023-02-28T12:29:28;1.77;;;1.13;;
47367;SDS011;34646;47.964;7.982;2023-02-28T12:35:33;4.93;;;1.98;;
47367;SDS011;34646;47.964;7.982;2023-02-28T12:41:42;2.17;;;1.10;;
47367;SDS011;34646;47.964;7.982;2023-02-28T12:48:00;1.30;;;0.90;;
47367;SDS011;34646;47.964;7.982;2023-02-28T13:00:15;1.37;;;1.00;;
47367;SDS011;34646;47.964;7.982;2023-02-28T13:12:29;3.38;;;0.80;;
47367;SDS011;34646;47.964;7.982;2023-02-28T13:18:31;3.33;;;1.10;;
47367;SDS011;34646;47.964;7.982;2023-02-28T13:24:41;1.10;;;0.80;;
47367;SDS011;34646;47.964;7.982;2023-02-28T13:36:50;9.50;;;1.48;;
47367;SDS011;34646;47.964;7.982;2023-02-28T13:43:17;33.20;;;4.72;;
47367;SDS011;34646;47.964;7.982;2023-02-28T14:02:00;27.08;;;3.85;;
47367;SDS011;34646;47.964;7.982;2023-02-28T14:08:20;31.58;;;3.78;;
47367;SDS011;34646;47.964;7.982;2023-02-28T14:14:53;17.25;;;2.67;;
47367;SDS011;34646;47.964;7.982;2023-02-28T14:20:51;17.13;;;3.20;;
47367;SDS011;34646;47.964;7.982;2023-02-28T14:27:21;9.93;;;2.33;;
47367;SDS011;34646;47.964;7.982;2023-02-28T14:33:43;14.43;;;2.50;;
47367;SDS011;34646;47.964;7.982;2023-02-28T14:39:44;23.03;;;2.67;;
47367;SDS011;34646;47.964;7.982;2023-02-28T14:45:49;19.08;;;3.13;;
47367;SDS011;34646;47.964;7.982;2023-02-28T14:52:29;20.00;;;2.92;;
47367;SDS011;34646;47.964;7.982;2023-02-28T14:58:31;15.38;;;3.00;;
47367;SDS011;34646;47.964;7.982;2023-02-28T15:04:33;24.15;;;7.03;;
47367;SDS011;34646;47.964;7.982;2023-02-28T15:10:35;24.17;;;13.43;;
47367;SDS011;34646;47.964;7.982;2023-02-28T15:16:39;20.50;;;8.37;;
47367;SDS011;34646;47.964;7.982;2023-02-28T15:22:42;21.60;;;8.95;;
47367;SDS011;34646;47.964;7.982;2023-02-28T15:28:46;38.95;;;11.20;;
47367;SDS011;34646;47.964;7.982;2023-02-28T15:34:47;21.08;;;9.27;;
47367;SDS011;34646;47.964;7.982;2023-02-28T15:40:52;32.33;;;7.70;;
47367;SDS011;34646;47.964;7.982;2023-02-28T15:47:01;39.50;;;8.43;;
47367;SDS011;34646;47.964;7.982;2023-02-28T15:53:17;38.33;;;6.20;;
47367;SDS011;34646;47.964;7.982;2023-02-28T15:59:25;26.65;;;5.65;;
47367;SDS011;34646;47.964;7.982;2023-02-28T16:05:28;29.80;;;5.38;;
47367;SDS011;34646;47.964;7.982;2023-02-28T16:11:32;36.17;;;5.53;;
47367;SDS011;34646;47.964;7.982;2023-02-28T16:17:35;31.48;;;5.50;;
47367;SDS011;34646;47.964;7.982;2023-02-28T16:23:38;16.90;;;3.70;;
47367;SDS011;34646;47.964;7.982;2023-02-28T16:29:39;24.33;;;4.63;;
47367;SDS011;34646;47.964;7.982;2023-02-28T16:35:40;21.87;;;3.80;;
47367;SDS011;34646;47.964;7.982;2023-02-28T16:41:42;20.70;;;3.60;;
47367;SDS011;34646;47.964;7.982;2023-02-28T16:47:45;17.02;;;4.05;;
47367;SDS011;34646;47.964;7.982;2023-02-28T16:53:46;13.43;;;3.78;;
47367;SDS011;34646;47.964;7.982;2023-02-28T16:59:47;17.27;;;3.73;;
47367;SDS011;34646;47.964;7.982;2023-02-28T17:11:49;14.68;;;3.67;;
47367;SDS011;34646;47.964;7.982;2023-02-28T17:17:50;10.57;;;3.37;;
47367;SDS011;34646;47.964;7.982;2023-02-28T17:23:51;19.40;;;3.37;;
47367;SDS011;34646;47.964;7.982;2023-02-28T17:29:52;11.17;;;2.67;;
47367;SDS011;34646;47.964;7.982;2023-02-28T17:35:53;10.50;;;3.00;;
47367;SDS011;34646;47.964;7.982;2023-02-28T17:41:54;15.60;;;3.20;;
47367;SDS011;34646;47.964;7.982;2023-02-28T17:47:55;12.27;;;2.90;;
47367;SDS011;34646;47.964;7.982;2023-02-28T17:53:56;17.57;;;3.07;;
47367;SDS011;34646;47.964;7.982;2023-02-28T17:59:57;13.97;;;3.40;;
47367;SDS011;34646;47.964;7.982;2023-02-28T18:05:58;8.87;;;3.13;;
47367;SDS011;34646;47.964;7.982;2023-02-28T18:12:00;11.10;;;2.90;;
47367;SDS011;34646;47.964;7.982;2023-02-28T18:18:01;11.50;;;2.57;;
47367;SDS011;34646;47.964;7.982;2023-02-28T18:24:02;12.20;;;3.60;;
47367;SDS011;34646;47.964;7.982;2023-02-28T18:30:03;10.67;;;3.30;;
47367;SDS011;34646;47.964;7.982;2023-02-28T18:36:04;11.65;;;3.42;;
47367;SDS011;34646;47.964;7.982;2023-02-28T18:42:06;10.02;;;3.38;;
47367;SDS011;34646;47.964;7.982;2023-02-28T18:48:07;20.25;;;3.10;;
47367;SDS011;34646;47.964;7.982;2023-02-28T18:54:09;12.97;;;3.17;;
47367;SDS011;34646;47.964;7.982;2023-02-28T19:00:10;10.20;;;2.88;;
47367;SDS011;34646;47.964;7.982;2023-02-28T19:12:13;8.30;;;2.80;;
47367;SDS011;34646;47.964;7.982;2023-02-28T19:18:16;7.40;;;3.72;;
47367;SDS011;34646;47.964;7.982;2023-02-28T19:24:17;7.23;;;2.80;;
47367;SDS011;34646;47.964;7.982;2023-02-28T19:30:18;10.53;;;3.10;;
47367;SDS011;34646;47.964;7.982;2023-02-28T19:36:19;9.33;;;3.37;;
47367;SDS011;34646;47.964;7.982;2023-02-28T19:42:20;20.50;;;4.57;;
47367;SDS011;34646;47.964;7.982;2023-02-28T19:48:22;7.47;;;2.90;;
47367;SDS011;34646;47.964;7.982;2023-02-28T19:54:25;8.05;;;3.35;;
47367;SDS011;34646;47.964;7.982;2023-02-28T20:00:26;6.30;;;2.78;;
47367;SDS011;34646;47.964;7.982;2023-02-28T20:06:28;7.03;;;3.03;;
47367;SDS011;34646;47.964;7.982;2023-02-28T20:19:06;8.75;;;3.05;;
47367;SDS011;34646;47.964;7.982;2023-02-28T20:25:07;5.27;;;3.07;;
47367;SDS011;34646;47.964;7.982;2023-02-28T20:31:25;5.97;;;3.00;;
47367;SDS011;34646;47.964;7.982;2023-02-28T20:37:39;5.80;;;2.75;;
47367;SDS011;34646;47.964;7.982;2023-02-28T20:43:40;6.63;;;3.10;;
47367;SDS011;34646;47.964;7.982;2023-02-28T20:49:53;4.05;;;2.50;;
47367;SDS011;34646;47.964;7.982;2023-02-28T20:56:07;8.53;;;3.03;;
47367;SDS011;34646;47.964;7.982;2023-02-28T21:02:20;5.32;;;2.38;;
47367;SDS011;34646;47.964;7.982;2023-02-28T21:08:25;6.97;;;2.80;;
47367;SDS011;34646;47.964;7.982;2023-02-28T21:14:26;7.57;;;3.00;;
47367;SDS011;34646;47.964;7.982;2023-02-28T21:20:27;5.07;;;2.77;;
47367;SDS011;34646;47.964;7.982;2023-02-28T21:26:29;6.80;;;3.23;;
47367;SDS011;34646;47.964;7.982;2023-02-28T21:32:30;5.67;;;2.80;;
47367;SDS011;34646;47.964;7.982;2023-02-28T21:38:32;7.20;;;3.45;;
47367;SDS011;34646;47.964;7.982;2023-02-28T21:44:33;5.43;;;2.95;;
47367;SDS011;34646;47.964;7.982;2023-02-28T21:50:34;7.40;;;3.00;;
47367;SDS011;34646;47.964;7.982;2023-02-28T21:56:36;4.33;;;2.60;;
47367;SDS011;34646;47.964;7.982;2023-02-28T22:02:37;4.50;;;2.90;;
47367;SDS011;34646;47.964;7.982;2023-02-28T22:08:38;7.13;;;2.87;;
47367;SDS011;34646;47.964;7.982;2023-02-28T22:14:40;5.72;;;2.42;;
47367;SDS011;34646;47.964;7.982;2023-02-28T22:20:41;6.27;;;2.87;;
47367;SDS011;34646;47.964;7.982;2023-02-28T22:26:42;3.97;;;2.87;;
47367;SDS011;34646;47.964;7.982;2023-02-28T22:32:43;4.77;;;2.97;;
47367;SDS011;34646;47.964;7.982;2023-02-28T22:38:44;5.57;;;3.37;;
47367;SDS011;34646;47.964;7.982;2023-02-28T22:44:48;5.57;;;2.80;;
47367;SDS011;34646;47.964;7.982;2023-02-28T22:50:49;5.78;;;2.90;;
47367;SDS011;34646;47.964;7.982;2023-02-28T22:56:51;5.27;;;2.97;;
47367;SDS011;34646;47.964;7.982;2023-02-28T23:02:52;6.77;;;2.93;;
47367;SDS011;34646;47.964;7.982;2023-02-28T23:08:54;5.10;;;2.60;;
47367;SDS011;34646;47.964;7.982;2023-02-28T23:14:57;3.92;;;3.15;;
47367;SDS011;34646;47.964;7.982;2023-02-28T23:20:58;6.00;;;3.03;;
47367;SDS011;34646;47.964;7.982;2023-02-28T23:27:00;5.17;;;2.77;;
47367;SDS011;34646;47.964;7.982;2023-02-28T23:33:04;4.55;;;2.65;;
47367;SDS011;34646;47.964;7.982;2023-02-28T23:39:05;3.95;;;2.50;;
47367;SDS011;34646;47.964;7.982;2023-02-28T23:45:06;5.00;;;2.97;;
47367;SDS011;34646;47.964;7.982;2023-02-28T23:51:14;3.15;;;2.47;;
47367;SDS011;34646;47.964;7.982;2023-02-28T23:57:20;4.65;;;2.70;;
